createdAt,value
2023-08-18T00:01:26.957Z,364.33
2023-08-18T00:03:29.521Z,358.35
2023-08-18T00:05:32.097Z,377.23
2023-08-18T00:07:34.814Z,362.98
2023-08-18T00:09:37.459Z,363.60
2023-08-18T00:11:39.897Z,380.30
2023-08-18T00:13:44.943Z,357.00
2023-08-18T00:15:47.562Z,378.83
2023-08-18T00:17:50.119Z,377.65
2023-08-18T00:19:52.749Z,345.55
2023-08-18T00:21:55.331Z,326.38
2023-08-18T00:23:57.815Z,367.65
2023-08-18T00:26:00.599Z,333.20
2023-08-18T00:28:03.829Z,377.40
2023-08-18T00:30:11.569Z,359.27
2023-08-18T00:32:14.861Z,338.83
2023-08-18T00:34:17.375Z,340.35
2023-08-18T00:36:19.801Z,348.65
2023-08-18T00:38:22.338Z,364.30
2023-08-18T00:40:25.193Z,374.30
2023-08-18T00:42:27.897Z,343.15
2023-08-18T00:44:30.377Z,360.42
2023-08-18T00:46:37.501Z,345.38
2023-08-18T00:48:40.916Z,352.15
2023-08-18T00:50:44.251Z,378.75
2023-08-18T00:52:53.624Z,335.33
2023-08-18T00:54:56.444Z,334.80
2023-08-18T00:56:59.185Z,343.25
2023-08-18T00:59:02.533Z,340.60
2023-08-18T01:03:11.287Z,300.48
2023-08-18T01:05:13.956Z,334.23
2023-08-18T01:07:16.461Z,346.63
2023-08-18T01:09:18.974Z,347.55
2023-08-18T01:11:27.345Z,323.00
2023-08-18T01:13:39.970Z,350.10
2023-08-18T01:15:46.128Z,340.13
2023-08-18T01:17:53.054Z,315.33
2023-08-18T01:19:58.986Z,333.35
2023-08-18T01:22:04.117Z,353.83
2023-08-18T01:24:10.116Z,340.20
2023-08-18T01:26:14.584Z,335.58
2023-08-18T01:28:17.545Z,324.50
2023-08-18T01:30:22.238Z,340.75
2023-08-18T01:32:30.120Z,328.05
2023-08-18T01:34:34.562Z,339.95
2023-08-18T01:36:40.258Z,324.08
2023-08-18T01:38:44.364Z,337.90
2023-08-18T01:42:53.813Z,293.40
2023-08-18T01:45:01.835Z,301.77
2023-08-18T01:47:04.343Z,291.75
2023-08-18T01:49:10.314Z,350.17
2023-08-18T01:51:12.880Z,322.45
2023-08-18T01:53:15.465Z,353.08
2023-08-18T01:55:18.098Z,305.70
2023-08-18T01:57:23.152Z,298.20
2023-08-18T01:59:25.691Z,320.23
2023-08-18T02:01:29.043Z,325.03
2023-08-18T02:03:31.657Z,309.02
2023-08-18T02:05:34.269Z,303.33
2023-08-18T02:07:39.216Z,317.25
2023-08-18T02:09:42.107Z,318.35
2023-08-18T02:11:45.619Z,311.50
2023-08-18T02:13:50.752Z,314.88
2023-08-18T02:15:53.312Z,308.50
2023-08-18T02:17:55.891Z,264.35
2023-08-18T02:20:01.499Z,272.98
2023-08-18T02:22:04.108Z,283.77
2023-08-18T02:24:07.068Z,263.80
2023-08-18T02:26:10.904Z,228.02
2023-08-18T02:28:13.334Z,205.05
2023-08-18T02:30:18.590Z,212.48
2023-08-18T02:32:21.195Z,156.38
2023-08-18T02:34:23.814Z,160.70
2023-08-18T02:36:26.274Z,181.45
2023-08-18T02:38:29.763Z,173.57
2023-08-18T02:40:32.208Z,177.00
2023-08-18T02:42:35.236Z,202.70
2023-08-18T02:44:37.650Z,175.38
2023-08-18T02:46:42.727Z,183.07
2023-08-18T02:48:45.236Z,192.77
2023-08-18T02:50:47.738Z,196.23
2023-08-18T02:52:50.219Z,168.15
2023-08-18T02:54:52.804Z,167.95
2023-08-18T02:56:55.910Z,165.73
2023-08-18T02:58:59.711Z,151.23
2023-08-18T03:01:06.479Z,178.50
2023-08-18T03:03:12.544Z,142.48
2023-08-18T03:05:15.302Z,183.45
2023-08-18T03:07:21.361Z,188.43
2023-08-18T03:09:26.113Z,175.57
2023-08-18T03:11:28.893Z,195.95
2023-08-18T03:13:31.950Z,175.63
2023-08-18T03:15:40.081Z,179.65
2023-08-18T03:17:42.684Z,141.13
2023-08-18T03:19:47.812Z,172.35
2023-08-18T03:21:50.244Z,153.05
2023-08-18T03:23:52.856Z,144.02
2023-08-18T03:26:00.543Z,135.40
2023-08-18T03:28:04.362Z,159.77
2023-08-18T03:30:08.557Z,147.85
2023-08-18T03:34:13.384Z,208.93
2023-08-18T03:36:18.574Z,167.38
2023-08-18T03:38:21.148Z,147.63
2023-08-18T03:40:23.627Z,159.13
2023-08-18T03:42:26.038Z,126.50
2023-08-18T03:44:28.726Z,138.30
2023-08-18T03:46:31.688Z,123.22
2023-08-18T03:48:36.475Z,121.93
2023-08-18T03:50:40.178Z,123.90
2023-08-18T03:52:45.320Z,125.93
2023-08-18T03:54:48.074Z,129.20
2023-08-18T03:56:52.033Z,138.23
2023-08-18T03:58:54.707Z,137.30
2023-08-18T04:01:02.874Z,125.13
2023-08-18T04:03:06.108Z,137.77
2023-08-18T04:05:09.592Z,142.85
2023-08-18T04:07:12.031Z,126.57
2023-08-18T04:09:17.614Z,133.15
2023-08-18T04:11:20.058Z,138.98
2023-08-18T04:13:22.647Z,137.75
2023-08-18T04:15:25.296Z,139.20
2023-08-18T04:17:27.993Z,143.13
2023-08-18T04:19:31.072Z,206.07
2023-08-18T04:21:34.074Z,199.90
2023-08-18T04:23:36.918Z,183.30
2023-08-18T04:25:43.423Z,162.60
2023-08-18T04:27:46.725Z,160.20
2023-08-18T04:29:49.817Z,139.75
2023-08-18T04:31:52.338Z,163.32
2023-08-18T04:33:56.063Z,165.75
2023-08-18T04:36:02.523Z,172.07
2023-08-18T04:38:07.207Z,152.88
2023-08-18T04:40:10.718Z,161.85
2023-08-18T04:42:15.840Z,141.00
2023-08-18T04:44:18.264Z,185.10
2023-08-18T04:46:21.811Z,199.10
2023-08-18T04:48:25.204Z,268.40
2023-08-18T04:50:28.137Z,241.10
2023-08-18T04:52:30.937Z,237.90
2023-08-18T04:54:33.722Z,214.48
2023-08-18T04:56:36.382Z,245.57
2023-08-18T04:58:41.579Z,235.30
2023-08-18T05:00:45.246Z,185.98
2023-08-18T05:02:49.227Z,272.42
2023-08-18T05:04:52.049Z,255.18
2023-08-18T05:06:55.296Z,218.25
2023-08-18T05:08:58.331Z,145.57
2023-08-18T05:11:05.517Z,156.93
2023-08-18T05:13:08.029Z,160.55
2023-08-18T05:15:14.187Z,152.20
2023-08-18T05:17:16.806Z,162.18
2023-08-18T05:19:19.307Z,132.90
2023-08-18T05:21:21.889Z,159.38
2023-08-18T05:23:24.589Z,133.20
2023-08-18T05:25:28.055Z,127.25
2023-08-18T05:27:31.407Z,133.70
2023-08-18T05:29:33.804Z,129.37
2023-08-18T05:31:38.931Z,126.53
2023-08-18T05:33:41.395Z,154.98
2023-08-18T05:35:44.544Z,147.93
2023-08-18T05:37:46.969Z,128.23
2023-08-18T05:39:49.604Z,141.25
2023-08-18T05:41:52.130Z,145.38
2023-08-18T05:43:54.714Z,140.68
2023-08-18T05:45:57.240Z,154.30
2023-08-18T05:48:02.431Z,144.65
2023-08-18T05:50:06.582Z,133.07
2023-08-18T05:52:09.038Z,136.43
2023-08-18T05:54:12.807Z,129.60
2023-08-18T05:56:15.469Z,138.10
2023-08-18T05:58:18.017Z,128.68
2023-08-18T06:00:23.609Z,122.90
2023-08-18T06:02:26.339Z,129.80
2023-08-18T06:04:31.560Z,131.57
2023-08-18T06:06:35.452Z,138.55
2023-08-18T06:08:38.768Z,132.65
2023-08-18T06:10:42.139Z,140.32
2023-08-18T06:12:44.787Z,144.70
2023-08-18T06:14:47.220Z,128.75
2023-08-18T06:16:49.718Z,137.23
2023-08-18T06:18:52.150Z,139.38
2023-08-18T06:20:57.254Z,141.40
2023-08-18T06:22:59.796Z,162.77
2023-08-18T06:25:02.250Z,164.00
2023-08-18T06:27:04.764Z,155.80
2023-08-18T06:29:07.191Z,152.82
2023-08-18T06:31:09.701Z,145.18
2023-08-18T06:33:12.408Z,144.43
2023-08-18T06:35:15.284Z,136.23
2023-08-18T06:37:20.651Z,129.77
2023-08-18T06:39:23.337Z,148.63
2023-08-18T06:41:25.824Z,134.05
2023-08-18T06:43:28.322Z,124.75
2023-08-18T06:45:30.760Z,135.25
2023-08-18T06:47:34.771Z,136.52
2023-08-18T06:49:38.346Z,140.15
2023-08-18T06:51:40.872Z,139.68
2023-08-18T06:53:45.944Z,139.40
2023-08-18T06:56:02.193Z,135.68
2023-08-18T06:58:05.897Z,120.82
2023-08-18T07:00:11.311Z,132.80
2023-08-18T07:02:14.183Z,127.25
2023-08-18T07:04:16.770Z,137.73
2023-08-18T07:06:20.402Z,140.65
2023-08-18T07:08:23.308Z,129.63
2023-08-18T07:10:29.177Z,137.57
2023-08-18T07:12:32.035Z,134.45
2023-08-18T07:14:34.729Z,142.32
2023-08-18T07:16:37.300Z,140.23
2023-08-18T07:18:39.851Z,139.82
2023-08-18T07:20:43.804Z,129.23
2023-08-18T07:22:46.352Z,138.20
2023-08-18T07:24:50.222Z,136.18
2023-08-18T07:26:56.160Z,130.40
2023-08-18T07:28:58.907Z,127.28
2023-08-18T07:31:04.236Z,130.88
2023-08-18T07:33:06.861Z,125.53
2023-08-18T07:35:10.397Z,129.52
2023-08-18T07:37:12.972Z,144.15
2023-08-18T07:39:15.420Z,139.52
2023-08-18T07:41:17.860Z,136.02
2023-08-18T07:43:23.037Z,131.75
2023-08-18T07:45:25.604Z,135.07
2023-08-18T07:47:28.085Z,145.05
2023-08-18T07:49:30.658Z,137.02
2023-08-18T07:51:33.468Z,137.00
2023-08-18T07:53:38.821Z,143.90
2023-08-18T07:55:41.322Z,130.73
2023-08-18T07:57:43.814Z,140.13
2023-08-18T07:59:48.945Z,138.05
2023-08-18T08:01:51.630Z,151.80
2023-08-18T08:03:54.364Z,187.65
2023-08-18T08:05:56.932Z,158.20
2023-08-18T08:07:59.529Z,167.70
2023-08-18T08:10:04.694Z,158.48
2023-08-18T08:12:08.386Z,141.95
2023-08-18T08:14:12.767Z,155.70
2023-08-18T08:16:17.913Z,141.85
2023-08-18T08:18:20.537Z,143.63
2023-08-18T08:20:29.950Z,135.00
2023-08-18T08:22:33.140Z,145.82
2023-08-18T08:24:38.598Z,164.30
2023-08-18T08:26:41.150Z,170.10
2023-08-18T08:28:45.455Z,153.93
2023-08-18T08:30:48.094Z,170.10
2023-08-18T08:32:53.690Z,170.80
2023-08-18T08:34:56.231Z,153.27
2023-08-18T08:36:58.702Z,162.63
2023-08-18T08:39:01.824Z,168.73
2023-08-18T08:41:04.398Z,165.63
2023-08-18T08:43:06.989Z,173.80
2023-08-18T08:45:12.782Z,170.00
2023-08-18T08:47:17.945Z,184.73
2023-08-18T08:49:27.628Z,176.57
2023-08-18T08:51:36.463Z,181.30
2023-08-18T08:53:41.641Z,186.25
2023-08-18T08:55:45.640Z,178.35
2023-08-18T08:57:49.148Z,184.52
2023-08-18T08:59:51.800Z,205.63
2023-08-18T09:01:55.104Z,223.18
2023-08-18T09:03:57.951Z,193.45
2023-08-18T09:06:03.184Z,194.20
2023-08-18T09:08:06.156Z,186.65
2023-08-18T09:12:18.849Z,185.38
2023-08-18T09:14:21.414Z,266.23
2023-08-18T09:16:27.533Z,200.07
2023-08-18T09:18:33.165Z,262.52
2023-08-18T09:20:36.539Z,202.25
2023-08-18T09:22:45.582Z,200.85
2023-08-18T09:24:51.690Z,197.70
2023-08-18T09:26:54.472Z,189.80
2023-08-18T09:28:56.948Z,182.05
2023-08-18T09:30:59.547Z,167.20
2023-08-18T09:33:02.636Z,183.55
2023-08-18T09:35:12.129Z,193.05
2023-08-18T09:37:17.311Z,175.52
2023-08-18T09:39:29.232Z,199.88
2023-08-18T09:41:34.066Z,189.10
2023-08-18T09:45:59.110Z,213.77
2023-08-18T09:48:03.341Z,217.05
2023-08-18T09:50:07.414Z,286.65
2023-08-18T09:54:14.482Z,197.55
2023-08-18T09:56:27.217Z,236.88
2023-08-18T09:58:35.937Z,185.07
2023-08-18T10:00:44.322Z,211.70
2023-08-18T10:02:48.051Z,226.82
2023-08-18T10:04:51.624Z,225.57
2023-08-18T10:06:54.912Z,183.77
2023-08-18T10:08:58.831Z,170.00
2023-08-18T10:11:01.838Z,208.48
2023-08-18T10:13:09.742Z,226.57
2023-08-18T10:15:13.381Z,161.32
2023-08-18T10:17:17.098Z,184.70
2023-08-18T10:21:36.897Z,243.48
2023-08-18T10:23:41.899Z,222.00
2023-08-18T10:25:45.045Z,223.98
2023-08-18T10:27:48.705Z,176.87
2023-08-18T10:29:57.914Z,170.02
2023-08-18T10:32:08.503Z,206.88
2023-08-18T10:34:18.659Z,204.95
2023-08-18T10:36:30.327Z,309.92
2023-08-18T10:38:35.618Z,242.75
2023-08-18T10:40:39.805Z,170.13
2023-08-18T10:42:43.059Z,203.75
2023-08-18T10:45:05.233Z,133.23
2023-08-18T10:47:32.460Z,410.38
2023-08-18T10:49:35.149Z,255.52
2023-08-18T10:51:37.783Z,259.30
2023-08-18T10:53:41.669Z,232.75
2023-08-18T10:57:52.261Z,202.57
2023-08-18T10:59:54.849Z,347.42
2023-08-18T11:02:00.808Z,371.17
2023-08-18T11:04:05.008Z,135.50
2023-08-18T11:06:08.201Z,260.95
2023-08-18T11:08:11.575Z,282.40
2023-08-18T11:10:18.631Z,165.02
2023-08-18T11:12:21.360Z,303.08
2023-08-18T11:14:25.658Z,189.65
2023-08-18T11:16:28.092Z,114.72
2023-08-18T11:18:33.208Z,119.90
2023-08-18T11:20:37.457Z,404.60
2023-08-18T11:22:40.882Z,302.20
2023-08-18T11:24:44.747Z,159.07
2023-08-18T11:28:51.936Z,477.08
2023-08-18T11:30:56.328Z,520.40
2023-08-18T11:32:59.001Z,259.73
2023-08-18T11:35:06.165Z,243.57
2023-08-18T11:37:11.849Z,452.05
2023-08-18T11:39:14.395Z,217.55
2023-08-18T11:41:16.933Z,447.05
2023-08-18T11:43:23.340Z,129.68
2023-08-18T11:45:26.743Z,402.80
2023-08-18T11:47:30.421Z,387.42
2023-08-18T11:49:32.959Z,489.30
2023-08-18T11:51:38.402Z,381.40
2023-08-18T11:53:40.885Z,201.38
2023-08-18T11:55:45.145Z,183.15
2023-08-18T11:57:48.018Z,397.95
2023-08-18T11:59:52.478Z,138.88
2023-08-18T12:01:57.047Z,270.95
2023-08-18T12:03:59.795Z,194.32
2023-08-18T12:06:02.421Z,231.98
2023-08-18T12:08:11.139Z,164.23
2023-08-18T12:10:13.773Z,450.60
2023-08-18T12:12:17.191Z,431.38
2023-08-18T12:14:20.091Z,440.13
2023-08-18T12:16:23.386Z,320.80
2023-08-18T12:18:25.871Z,147.40
2023-08-18T12:20:28.728Z,282.25
2023-08-18T12:22:31.421Z,215.77
2023-08-18T12:24:37.826Z,306.77
2023-08-18T12:26:40.390Z,154.60
2023-08-18T12:28:42.813Z,323.52
2023-08-18T12:30:45.442Z,403.85
2023-08-18T12:32:49.790Z,533.40
2023-08-18T12:34:52.742Z,258.80
2023-08-18T12:36:57.730Z,529.78
2023-08-18T12:39:00.386Z,429.27
2023-08-18T12:41:06.647Z,236.95
2023-08-18T12:43:10.390Z,515.13
2023-08-18T12:45:14.022Z,300.35
2023-08-18T12:47:16.533Z,225.45
2023-08-18T12:49:19.041Z,352.40
2023-08-18T12:51:21.426Z,530.50
2023-08-18T12:53:24.082Z,179.77
2023-08-18T12:55:26.557Z,310.85
2023-08-18T12:57:31.715Z,226.90
2023-08-18T12:59:34.221Z,242.10
2023-08-18T13:01:37.761Z,499.80
2023-08-18T13:03:40.538Z,516.28
2023-08-18T13:05:43.052Z,380.48
2023-08-18T13:07:47.499Z,395.33
2023-08-18T13:09:49.973Z,452.50
2023-08-18T13:11:52.457Z,313.20
2023-08-18T13:13:57.639Z,529.85
2023-08-18T13:16:00.202Z,203.82
2023-08-18T13:18:03.583Z,467.17
2023-08-18T13:20:08.478Z,460.23
2023-08-18T13:22:11.158Z,396.90
2023-08-18T13:24:13.683Z,336.30
2023-08-18T13:26:16.119Z,297.52
2023-08-18T13:28:18.669Z,393.77
2023-08-18T13:30:23.872Z,217.70
2023-08-18T13:32:26.388Z,427.38
2023-08-18T13:34:28.935Z,281.75
2023-08-18T13:36:31.441Z,471.35
2023-08-18T13:38:33.922Z,205.90
2023-08-18T13:40:37.666Z,303.15
2023-08-18T13:42:40.231Z,300.42
2023-08-18T13:44:42.761Z,344.27
2023-08-18T13:46:47.923Z,229.05
2023-08-18T13:48:50.379Z,369.85
2023-08-18T13:50:54.734Z,356.60
2023-08-18T13:52:58.373Z,186.52
2023-08-18T13:55:01.003Z,290.75
2023-08-18T13:57:03.660Z,294.23
2023-08-18T13:59:06.458Z,386.67
2023-08-18T14:01:09.077Z,412.08
2023-08-18T14:03:14.236Z,491.30
2023-08-18T14:05:19.020Z,344.23
2023-08-18T14:07:21.608Z,341.85
2023-08-18T14:09:27.596Z,305.25
2023-08-18T14:11:30.188Z,390.70
2023-08-18T14:13:35.299Z,410.65
2023-08-18T14:15:39.168Z,391.63
2023-08-18T14:17:46.211Z,208.13
2023-08-18T14:19:53.187Z,370.98
2023-08-18T14:21:55.709Z,388.30
2023-08-18T14:23:58.326Z,329.08
2023-08-18T14:26:00.849Z,407.60
2023-08-18T14:28:04.578Z,360.88
2023-08-18T14:32:10.125Z,330.85
2023-08-18T14:34:12.804Z,282.98
2023-08-18T14:36:18.097Z,234.80
2023-08-18T14:38:20.571Z,372.25
2023-08-18T14:40:23.066Z,280.58
2023-08-18T14:42:26.485Z,196.65
2023-08-18T14:44:29.900Z,332.00
2023-08-18T14:46:32.373Z,258.17
2023-08-18T14:48:35.024Z,305.05
2023-08-18T14:50:37.595Z,304.83
2023-08-18T14:52:42.737Z,216.35
2023-08-18T14:54:45.244Z,275.13
2023-08-18T14:56:47.735Z,304.73
2023-08-18T14:58:50.198Z,221.85
2023-08-18T15:00:55.911Z,274.08
2023-08-18T15:02:59.409Z,231.52
2023-08-18T15:05:02.007Z,309.85
2023-08-18T15:07:05.730Z,208.85
2023-08-18T15:11:14.076Z,253.20
2023-08-18T15:13:16.614Z,305.48
2023-08-18T15:15:19.172Z,260.80
2023-08-18T15:17:21.605Z,201.93
2023-08-18T15:19:24.908Z,332.65
2023-08-18T15:21:29.226Z,235.93
2023-08-18T15:23:31.845Z,176.57
2023-08-18T15:25:37.108Z,244.00
2023-08-18T15:27:46.577Z,198.05
2023-08-18T15:29:49.077Z,191.73
2023-08-18T15:31:51.592Z,213.77
2023-08-18T15:33:56.505Z,188.65
2023-08-18T15:36:00.037Z,240.20
2023-08-18T15:38:03.215Z,260.35
2023-08-18T15:40:07.461Z,230.93
2023-08-18T15:42:12.631Z,303.77
2023-08-18T15:44:15.198Z,223.40
2023-08-18T15:46:17.664Z,197.68
2023-08-18T15:48:20.219Z,299.33
2023-08-18T15:50:22.770Z,207.90
2023-08-18T15:52:25.308Z,267.45
2023-08-18T15:54:28.546Z,189.38
2023-08-18T15:56:31.081Z,191.00
2023-08-18T15:58:36.250Z,217.90
2023-08-18T16:00:38.864Z,209.85
2023-08-18T16:02:41.434Z,192.95
2023-08-18T16:04:44.173Z,208.55
2023-08-18T16:06:46.720Z,223.45
2023-08-18T16:08:49.221Z,189.45
2023-08-18T16:10:51.663Z,187.07
2023-08-18T16:12:54.161Z,275.65
2023-08-18T16:15:27.276Z,198.02
2023-08-18T16:17:21.630Z,222.77
2023-08-18T16:19:24.191Z,236.02
2023-08-18T16:21:26.682Z,201.18
2023-08-18T16:23:29.915Z,295.55
2023-08-18T16:25:32.429Z,248.43
2023-08-18T16:27:35.058Z,196.95
2023-08-18T16:29:37.518Z,198.18
2023-08-18T16:31:42.792Z,190.82
2023-08-18T16:33:45.429Z,211.88
2023-08-18T16:35:49.583Z,206.20
2023-08-18T16:37:52.379Z,234.63
2023-08-18T16:39:54.851Z,252.68
2023-08-18T16:41:57.354Z,284.23
2023-08-18T16:43:59.809Z,261.52
2023-08-18T16:46:02.286Z,279.23
2023-08-18T16:48:07.999Z,293.17
2023-08-18T16:50:10.907Z,225.50
2023-08-18T16:52:13.376Z,263.70
2023-08-18T16:54:16.063Z,303.60
2023-08-18T16:56:18.562Z,249.95
2023-08-18T16:58:20.977Z,265.55
2023-08-18T17:00:23.554Z,263.42
2023-08-18T17:02:26.108Z,278.63
2023-08-18T17:04:33.645Z,298.73
2023-08-18T17:06:36.539Z,238.48
2023-08-18T17:08:39.244Z,280.73
2023-08-18T17:10:41.757Z,278.17
2023-08-18T17:12:44.177Z,244.63
2023-08-18T17:14:46.693Z,268.00
2023-08-18T17:16:49.230Z,259.83
2023-08-18T17:18:51.789Z,281.42
2023-08-18T17:20:57.279Z,271.98
2023-08-18T17:22:59.864Z,276.30
2023-08-18T17:25:03.144Z,281.08
2023-08-18T17:27:05.861Z,285.52
2023-08-18T17:29:08.718Z,249.23
2023-08-18T17:31:12.469Z,277.90
2023-08-18T17:35:18.014Z,259.67
2023-08-18T17:37:23.557Z,271.20
2023-08-18T17:39:26.170Z,253.32
2023-08-18T17:41:28.684Z,238.98
2023-08-18T17:43:31.618Z,264.45
2023-08-18T17:45:36.163Z,255.33
2023-08-18T17:47:38.701Z,205.65
2023-08-18T17:49:41.244Z,191.23
2023-08-18T17:51:45.128Z,193.35
2023-08-18T17:53:50.138Z,198.88
2023-08-18T17:55:53.970Z,184.00
2023-08-18T17:57:56.472Z,152.73
2023-08-18T17:59:59.184Z,157.90
2023-08-18T18:02:02.064Z,140.40
2023-08-18T18:04:05.826Z,144.57
2023-08-18T18:06:11.034Z,127.32
2023-08-18T18:08:14.047Z,124.40
2023-08-18T18:10:21.232Z,141.57
2023-08-18T18:12:23.724Z,155.05
2023-08-18T18:14:26.282Z,132.18
2023-08-18T18:16:28.797Z,132.98
2023-08-18T18:18:31.402Z,140.50
2023-08-18T18:20:34.200Z,123.38
2023-08-18T18:22:36.746Z,135.18
2023-08-18T18:24:39.682Z,153.40
2023-08-18T18:26:45.472Z,126.82
2023-08-18T18:28:47.888Z,121.30
2023-08-18T18:30:50.603Z,156.63
2023-08-18T18:32:53.257Z,170.70
2023-08-18T18:34:55.795Z,157.88
2023-08-18T18:36:58.282Z,154.95
2023-08-18T18:39:01.204Z,147.23
2023-08-18T18:41:03.693Z,155.85
2023-08-18T18:43:08.875Z,202.73
2023-08-18T18:45:12.006Z,169.93
2023-08-18T18:47:16.513Z,207.25
2023-08-18T18:49:20.701Z,186.40
2023-08-18T18:51:23.631Z,189.02
2023-08-18T18:53:26.110Z,207.20
2023-08-18T18:55:28.728Z,186.68
2023-08-18T18:57:31.817Z,195.93
2023-08-18T18:59:57.396Z,203.18
2023-08-18T19:01:59.891Z,193.00
2023-08-18T19:04:02.538Z,207.95
2023-08-18T19:06:05.189Z,207.70
2023-08-18T19:08:07.852Z,206.70
2023-08-18T19:10:11.290Z,221.60
2023-08-18T19:12:13.904Z,210.75
2023-08-18T19:14:16.421Z,207.40
2023-08-18T19:16:22.952Z,201.52
2023-08-18T19:18:28.089Z,216.48
2023-08-18T19:20:31.226Z,214.05
2023-08-18T19:22:34.714Z,197.88
2023-08-18T19:28:55.264Z,198.45
2023-08-18T19:31:03.506Z,195.82
2023-08-18T19:33:10.274Z,199.60
2023-08-18T19:35:16.310Z,231.90
2023-08-18T19:37:19.131Z,196.85
2023-08-18T19:39:21.612Z,199.45
2023-08-18T19:41:24.143Z,220.13
2023-08-18T19:43:26.837Z,197.63
2023-08-18T19:45:29.300Z,179.38
2023-08-18T19:47:32.020Z,184.60
2023-08-18T19:49:37.239Z,191.18
2023-08-18T19:51:39.797Z,190.43
2023-08-18T19:53:42.284Z,195.80
2023-08-18T19:55:46.712Z,198.38
2023-08-18T19:57:49.277Z,192.90
2023-08-18T19:59:51.793Z,186.18
2023-08-18T20:01:54.650Z,192.73
2023-08-18T20:03:57.198Z,204.48
2023-08-18T20:06:06.342Z,184.50
2023-08-18T20:08:12.171Z,180.60
2023-08-18T20:10:14.761Z,171.13
2023-08-18T20:12:17.249Z,172.07
2023-08-18T20:14:19.739Z,172.05
2023-08-18T20:16:22.251Z,188.20
2023-08-18T20:18:25.902Z,188.10
2023-08-18T20:20:32.679Z,177.70
2023-08-18T20:22:38.540Z,179.15
2023-08-18T20:24:41.062Z,182.88
2023-08-18T20:26:44.342Z,176.82
2023-08-18T20:28:49.486Z,175.88
2023-08-18T20:30:51.941Z,176.68
2023-08-18T20:32:57.140Z,188.02
2023-08-18T20:34:59.913Z,173.23
2023-08-18T20:37:02.495Z,170.80
2023-08-18T20:39:07.717Z,172.18
2023-08-18T20:41:12.212Z,169.68
2023-08-18T20:43:14.713Z,187.95
2023-08-18T20:45:17.218Z,180.80
2023-08-18T20:47:19.762Z,196.43
2023-08-18T20:49:22.316Z,207.13
2023-08-18T20:51:24.931Z,174.25
2023-08-18T20:53:27.515Z,174.88
2023-08-18T20:55:32.738Z,201.38
2023-08-18T20:57:35.784Z,181.05
2023-08-18T20:59:38.803Z,179.43
2023-08-18T21:01:41.241Z,176.55
2023-08-18T21:03:45.393Z,175.93
2023-08-18T21:05:48.047Z,176.60
2023-08-18T21:07:50.608Z,183.43
2023-08-18T21:09:53.962Z,194.18
2023-08-18T21:11:59.172Z,193.50
2023-08-18T21:14:01.633Z,178.25
2023-08-18T21:16:04.416Z,172.00
2023-08-18T21:18:07.071Z,221.20
2023-08-18T21:20:12.705Z,208.82
2023-08-18T21:22:15.275Z,189.00
2023-08-18T21:24:17.796Z,254.45
2023-08-18T21:26:20.521Z,320.20
2023-08-18T21:28:26.477Z,297.77
2023-08-18T21:30:28.956Z,368.77
2023-08-18T21:32:32.324Z,378.52
2023-08-18T21:34:35.029Z,338.48
2023-08-18T21:36:37.545Z,372.40
2023-08-18T21:38:39.951Z,386.13
2023-08-18T21:40:42.499Z,406.27
2023-08-18T21:42:45.123Z,380.27
2023-08-18T21:44:50.252Z,386.48
2023-08-18T21:46:52.755Z,393.27
2023-08-18T21:48:55.279Z,398.88
2023-08-18T21:50:58.880Z,390.13
2023-08-18T21:53:01.373Z,393.33
2023-08-18T21:55:04.272Z,377.55
2023-08-18T21:57:06.713Z,369.13
2023-08-18T21:59:09.694Z,376.10
2023-08-18T22:01:14.868Z,387.37
2023-08-18T22:03:18.600Z,386.75
2023-08-18T22:05:21.384Z,386.60
2023-08-18T22:07:23.885Z,381.65
2023-08-18T22:09:26.368Z,426.52
2023-08-18T22:11:32.120Z,397.92
2023-08-18T22:13:34.609Z,388.33
2023-08-18T22:15:37.306Z,403.70
2023-08-18T22:17:44.503Z,392.67
2023-08-18T22:19:47.859Z,371.70
2023-08-18T22:21:50.364Z,410.27
2023-08-18T22:23:53.978Z,416.90
2023-08-18T22:25:56.655Z,413.65
2023-08-18T22:27:59.161Z,412.85
2023-08-18T22:30:02.733Z,384.45
2023-08-18T22:32:05.831Z,399.10
2023-08-18T22:34:10.978Z,386.97
2023-08-18T22:36:13.460Z,410.70
2023-08-18T22:38:15.937Z,409.63
2023-08-18T22:40:18.561Z,407.83
2023-08-18T22:42:21.263Z,380.10
2023-08-18T22:44:23.872Z,377.30
2023-08-18T22:46:28.830Z,382.67
2023-08-18T22:48:31.383Z,412.38
2023-08-18T22:50:36.493Z,409.45
2023-08-18T22:52:38.969Z,391.60
2023-08-18T22:54:42.147Z,335.08
2023-08-18T22:56:44.623Z,348.03
2023-08-18T22:58:47.178Z,397.27
2023-08-18T23:00:50.578Z,395.65
2023-08-18T23:02:53.361Z,411.30
2023-08-18T23:04:55.892Z,406.88
2023-08-18T23:07:00.942Z,366.23
2023-08-18T23:09:04.806Z,403.85
2023-08-18T23:13:09.575Z,330.20
2023-08-18T23:15:12.915Z,342.13
2023-08-18T23:17:16.355Z,345.60
2023-08-18T23:19:19.722Z,351.95
2023-08-18T23:21:24.301Z,403.23
2023-08-18T23:23:29.483Z,381.98
2023-08-18T23:25:32.134Z,383.95
2023-08-18T23:27:34.755Z,378.88
2023-08-18T23:29:37.262Z,402.55
2023-08-18T23:31:40.581Z,349.87
2023-08-18T23:33:44.654Z,353.77
2023-08-18T23:37:49.793Z,296.52
2023-08-18T23:39:54.872Z,332.65
2023-08-18T23:41:57.434Z,375.90
2023-08-18T23:44:00.308Z,348.65
2023-08-18T23:46:03.677Z,333.83
2023-08-18T23:48:06.930Z,422.27
2023-08-18T23:50:10.281Z,335.50
2023-08-18T23:52:12.742Z,330.92
2023-08-18T23:54:15.448Z,378.65
2023-08-18T23:56:20.734Z,326.65
2023-08-18T23:58:23.318Z,380.42
